sensor_id;sensor_type;location;lat;lon;timestamp;pressure;altitude;pressure_sealevel;temperature;humidity
4814;BME280;15375;48.540;9.268;2024-03-08T00:00:08;97200.34;;;3.28;100.00
4814;BME280;15375;48.540;9.268;2024-03-08T00:02:41;97194.47;;;3.15;100.00
4814;BME280;15375;48.540;9.268;2024-03-08T00:05:08;97204.00;;;3.05;100.00
4814;BME280;15375;48.540;9.268;2024-03-08T00:07:38;97193.16;;;2.98;100.00
4814;BME280;15375;48.540;9.268;2024-03-08T00:10:04;97188.16;;;3.00;100.00
4814;BME280;15375;48.540;9.268;2024-03-08T00:12:30;97191.59;;;2.94;100.00
4814;BME280;15375;48.540;9.268;2024-03-08T00:14:56;97191.66;;;3.01;100.00
4814;BME280;15375;48.540;9.268;2024-03-08T00:17:21;97178.50;;;2.96;100.00
4814;BME280;15375;48.540;9.268;2024-03-08T00:19:50;97193.22;;;3.05;100.00
4814;BME280;15375;48.540;9.268;2024-03-08T00:22:16;97175.53;;;3.04;100.00
4814;BME280;15375;48.540;9.268;2024-03-08T00:24:42;97182.09;;;3.10;100.00
4814;BME280;15375;48.540;9.268;2024-03-08T00:27:07;97176.38;;;3.15;100.00
4814;BME280;15375;48.540;9.268;2024-03-08T00:29:34;97164.91;;;3.22;100.00
4814;BME280;15375;48.540;9.268;2024-03-08T00:31:59;97154.81;;;3.15;100.00
4814;BME280;15375;48.540;9.268;2024-03-08T00:34:25;97156.78;;;3.18;100.00
4814;BME280;15375;48.540;9.268;2024-03-08T00:36:50;97174.84;;;3.18;100.00
4814;BME280;15375;48.540;9.268;2024-03-08T00:39:17;97164.13;;;3.21;100.00
4814;BME280;15375;48.540;9.268;2024-03-08T00:41:42;97156.13;;;3.36;100.00
4814;BME280;15375;48.540;9.268;2024-03-08T00:44:09;97151.41;;;3.22;100.00
4814;BME280;15375;48.540;9.268;2024-03-08T00:46:35;97156.34;;;3.13;100.00
4814;BME280;15375;48.540;9.268;2024-03-08T00:49:00;97144.00;;;3.08;100.00
4814;BME280;15375;48.540;9.268;2024-03-08T00:51:26;97135.13;;;3.08;100.00
4814;BME280;15375;48.540;9.268;2024-03-08T00:53:51;97148.69;;;3.18;100.00
4814;BME280;15375;48.540;9.268;2024-03-08T00:56:17;97140.50;;;3.08;100.00
4814;BME280;15375;48.540;9.268;2024-03-08T00:58:42;97148.28;;;3.16;100.00
4814;BME280;15375;48.540;9.268;2024-03-08T01:01:08;97149.00;;;3.10;100.00
4814;BME280;15375;48.540;9.268;2024-03-08T01:03:35;97148.63;;;3.11;100.00
4814;BME280;15375;48.540;9.268;2024-03-08T01:06:00;97120.47;;;3.05;100.00
4814;BME280;15375;48.540;9.268;2024-03-08T01:08:26;97137.13;;;3.14;100.00
4814;BME280;15375;48.540;9.268;2024-03-08T01:10:52;97117.88;;;3.16;100.00
4814;BME280;15375;48.540;9.268;2024-03-08T01:13:18;97124.03;;;3.16;100.00
4814;BME280;15375;48.540;9.268;2024-03-08T01:15:44;97093.06;;;2.93;100.00
4814;BME280;15375;48.540;9.268;2024-03-08T01:18:09;97120.13;;;3.07;100.00
4814;BME280;15375;48.540;9.268;2024-03-08T01:20:35;97128.59;;;3.09;100.00
4814;BME280;15375;48.540;9.268;2024-03-08T01:23:00;97111.66;;;3.08;100.00
4814;BME280;15375;48.540;9.268;2024-03-08T01:25:26;97119.00;;;3.15;100.00
4814;BME280;15375;48.540;9.268;2024-03-08T01:27:52;97118.56;;;3.06;100.00
4814;BME280;15375;48.540;9.268;2024-03-08T01:30:19;97110.91;;;3.11;100.00
4814;BME280;15375;48.540;9.268;2024-03-08T01:32:44;97107.81;;;3.09;100.00
4814;BME280;15375;48.540;9.268;2024-03-08T01:35:10;97104.72;;;3.07;100.00
4814;BME280;15375;48.540;9.268;2024-03-08T01:37:36;97101.63;;;3.05;100.00
4814;BME280;15375;48.540;9.268;2024-03-08T01:40:02;97089.72;;;3.06;100.00
4814;BME280;15375;48.540;9.268;2024-03-08T01:42:28;97086.63;;;3.04;100.00
4814;BME280;15375;48.540;9.268;2024-03-08T01:44:54;97073.06;;;2.97;100.00
4814;BME280;15375;48.540;9.268;2024-03-08T01:47:20;97085.38;;;2.95;100.00
4814;BME280;15375;48.540;9.268;2024-03-08T01:49:49;97081.50;;;2.92;100.00
4814;BME280;15375;48.540;9.268;2024-03-08T01:52:15;97082.22;;;2.86;100.00
4814;BME280;15375;48.540;9.268;2024-03-08T01:54:41;97074.53;;;2.84;100.00
4814;BME280;15375;48.540;9.268;2024-03-08T01:57:06;97059.88;;;2.82;100.00
4814;BME280;15375;48.540;9.268;2024-03-08T01:59:32;97056.78;;;2.80;100.00
4814;BME280;15375;48.540;9.268;2024-03-08T02:02:00;97064.44;;;2.74;100.00
4814;BME280;15375;48.540;9.268;2024-03-08T02:04:26;97053.97;;;2.66;100.00
4814;BME280;15375;48.540;9.268;2024-03-08T02:06:52;97067.47;;;2.69;100.00
4814;BME280;15375;48.540;9.268;2024-03-08T02:09:17;97064.81;;;2.73;100.00
4814;BME280;15375;48.540;9.268;2024-03-08T02:11:42;97053.63;;;2.71;100.00
4814;BME280;15375;48.540;9.268;2024-03-08T02:14:08;97054.78;;;2.70;100.00
4814;BME280;15375;48.540;9.268;2024-03-08T02:16:34;97049.72;;;2.65;100.00
4814;BME280;15375;48.540;9.268;2024-03-08T02:18:59;97037.63;;;2.44;100.00
4814;BME280;15375;48.540;9.268;2024-03-08T02:21:25;97055.84;;;2.58;100.00
4814;BME280;15375;48.540;9.268;2024-03-08T02:23:51;97043.41;;;2.43;100.00
4814;BME280;15375;48.540;9.268;2024-03-08T02:26:17;97032.56;;;2.36;100.00
4814;BME280;15375;48.540;9.268;2024-03-08T02:28:44;97045.72;;;2.44;100.00
4814;BME280;15375;48.540;9.268;2024-03-08T02:31:10;97028.72;;;2.37;100.00
4814;BME280;15375;48.540;9.268;2024-03-08T02:33:35;97043.78;;;2.45;100.00
4814;BME280;15375;48.540;9.268;2024-03-08T02:36:01;97048.03;;;2.46;100.00
4814;BME280;15375;48.540;9.268;2024-03-08T02:38:26;97032.22;;;2.41;100.00
4814;BME280;15375;48.540;9.268;2024-03-08T02:40:53;97041.44;;;2.40;100.00
4814;BME280;15375;48.540;9.268;2024-03-08T02:43:20;97041.03;;;2.38;100.00
4814;BME280;15375;48.540;9.268;2024-03-08T02:45:46;97039.47;;;2.33;100.00
4814;BME280;15375;48.540;9.268;2024-03-08T02:48:12;97035.25;;;2.36;100.00
4814;BME280;15375;48.540;9.268;2024-03-08T02:50:38;97034.78;;;2.27;100.00
4814;BME280;15375;48.540;9.268;2024-03-08T02:53:05;97031.34;;;2.26;100.00
4814;BME280;15375;48.540;9.268;2024-03-08T02:55:34;97024.69;;;2.17;100.00
4814;BME280;15375;48.540;9.268;2024-03-08T02:58:02;97023.44;;;2.04;100.00
4814;BME280;15375;48.540;9.268;2024-03-08T03:00:28;97024.56;;;2.03;100.00
4814;BME280;15375;48.540;9.268;2024-03-08T03:02:56;97025.63;;;1.94;100.00
4814;BME280;15375;48.540;9.268;2024-03-08T03:05:22;97030.28;;;1.98;100.00
4814;BME280;15375;48.540;9.268;2024-03-08T03:07:47;97022.59;;;2.00;100.00
4814;BME280;15375;48.540;9.268;2024-03-08T03:10:14;97031.50;;;2.04;100.00
4814;BME280;15375;48.540;9.268;2024-03-08T03:12:42;97015.94;;;1.86;100.00
4814;BME280;15375;48.540;9.268;2024-03-08T03:15:08;97019.38;;;1.87;100.00
4814;BME280;15375;48.540;9.268;2024-03-08T03:17:33;97020.88;;;1.81;100.00
4814;BME280;15375;48.540;9.268;2024-03-08T03:19:59;97037.28;;;1.72;100.00
4814;BME280;15375;48.540;9.268;2024-03-08T03:22:27;97013.69;;;1.59;100.00
4814;BME280;15375;48.540;9.268;2024-03-08T03:24:55;97013.25;;;1.53;100.00
4814;BME280;15375;48.540;9.268;2024-03-08T03:27:23;97019.44;;;1.57;100.00
4814;BME280;15375;48.540;9.268;2024-03-08T03:29:49;97014.97;;;1.68;100.00
4814;BME280;15375;48.540;9.268;2024-03-08T03:32:17;97004.28;;;1.75;100.00
4814;BME280;15375;48.540;9.268;2024-03-08T03:34:43;96999.66;;;1.72;100.00
4814;BME280;15375;48.540;9.268;2024-03-08T03:37:09;97010.00;;;1.70;100.00
4814;BME280;15375;48.540;9.268;2024-03-08T03:39:38;97002.38;;;1.76;100.00
4814;BME280;15375;48.540;9.268;2024-03-08T03:42:19;97002.38;;;1.76;100.00
4814;BME280;15375;48.540;9.268;2024-03-08T03:44:48;97000.78;;;1.71;100.00
4814;BME280;15375;48.540;9.268;2024-03-08T03:47:14;97004.94;;;1.65;100.00
4814;BME280;15375;48.540;9.268;2024-03-08T03:49:40;96984.38;;;1.47;100.00
4814;BME280;15375;48.540;9.268;2024-03-08T03:52:06;97001.00;;;1.56;100.00
4814;BME280;15375;48.540;9.268;2024-03-08T03:54:31;96987.75;;;1.40;100.00
4814;BME280;15375;48.540;9.268;2024-03-08T03:56:58;97003.91;;;1.44;100.00
4814;BME280;15375;48.540;9.268;2024-03-08T03:59:23;97000.69;;;1.31;100.00
4814;BME280;15375;48.540;9.268;2024-03-08T04:01:49;96989.75;;;1.17;100.00
4814;BME280;15375;48.540;9.268;2024-03-08T04:04:15;96997.88;;;1.50;100.00
4814;BME280;15375;48.540;9.268;2024-03-08T04:06:40;96952.97;;;1.21;100.00
4814;BME280;15375;48.540;9.268;2024-03-08T04:09:07;96986.25;;;1.43;100.00
4814;BME280;15375;48.540;9.268;2024-03-08T04:11:32;96986.13;;;1.32;100.00
4814;BME280;15375;48.540;9.268;2024-03-08T04:13:58;96977.66;;;1.30;100.00
4814;BME280;15375;48.540;9.268;2024-03-08T04:16:23;96979.94;;;1.28;100.00
4814;BME280;15375;48.540;9.268;2024-03-08T04:18:49;96991.44;;;1.28;100.00
4814;BME280;15375;48.540;9.268;2024-03-08T04:21:15;96997.56;;;1.25;100.00
4814;BME280;15375;48.540;9.268;2024-03-08T04:23:40;96984.44;;;1.20;100.00
4814;BME280;15375;48.540;9.268;2024-03-08T04:26:06;96966.69;;;1.12;100.00
4814;BME280;15375;48.540;9.268;2024-03-08T04:28:32;96929.81;;;0.80;100.00
4814;BME280;15375;48.540;9.268;2024-03-08T04:30:58;96961.25;;;1.09;100.00
4814;BME280;15375;48.540;9.268;2024-03-08T04:33:28;96977.38;;;1.09;100.00
4814;BME280;15375;48.540;9.268;2024-03-08T04:35:53;96983.59;;;1.13;100.00
4814;BME280;15375;48.540;9.268;2024-03-08T04:38:18;96976.97;;;1.07;100.00
4814;BME280;15375;48.540;9.268;2024-03-08T04:40:44;96971.91;;;1.02;100.00
4814;BME280;15375;48.540;9.268;2024-03-08T04:43:09;96976.03;;;0.96;100.00
4814;BME280;15375;48.540;9.268;2024-03-08T04:45:36;96967.19;;;0.92;100.00
4814;BME280;15375;48.540;9.268;2024-03-08T04:48:01;96976.06;;;0.70;100.00
4814;BME280;15375;48.540;9.268;2024-03-08T04:50:27;96945.66;;;0.36;100.00
4814;BME280;15375;48.540;9.268;2024-03-08T04:52:54;96957.38;;;0.50;100.00
4814;BME280;15375;48.540;9.268;2024-03-08T04:55:19;96972.50;;;0.62;100.00
4814;BME280;15375;48.540;9.268;2024-03-08T04:57:46;96958.53;;;0.49;100.00
4814;BME280;15375;48.540;9.268;2024-03-08T05:00:12;96959.34;;;0.53;100.00
4814;BME280;15375;48.540;9.268;2024-03-08T05:02:38;96966.31;;;0.58;100.00
4814;BME280;15375;48.540;9.268;2024-03-08T05:05:07;96938.47;;;0.40;100.00
4814;BME280;15375;48.540;9.268;2024-03-08T05:07:32;96971.19;;;0.26;100.00
4814;BME280;15375;48.540;9.268;2024-03-08T05:09:58;96947.13;;;0.07;100.00
4814;BME280;15375;48.540;9.268;2024-03-08T05:12:24;96959.94;;;0.17;100.00
4814;BME280;15375;48.540;9.268;2024-03-08T05:14:49;96960.03;;;0.24;100.00
4814;BME280;15375;48.540;9.268;2024-03-08T05:17:15;96954.63;;;0.21;100.00
4814;BME280;15375;48.540;9.268;2024-03-08T05:19:41;96966.31;;;0.32;100.00
4814;BME280;15375;48.540;9.268;2024-03-08T05:22:07;96942.47;;;0.27;100.00
4814;BME280;15375;48.540;9.268;2024-03-08T05:24:33;96939.41;;;0.28;100.00
4814;BME280;15375;48.540;9.268;2024-03-08T05:26:59;96956.94;;;0.45;100.00
4814;BME280;15375;48.540;9.268;2024-03-08T05:29:28;96940.06;;;0.44;100.00
4814;BME280;15375;48.540;9.268;2024-03-08T05:31:54;96945.81;;;0.46;100.00
4814;BME280;15375;48.540;9.268;2024-03-08T05:34:20;96931.91;;;0.37;100.00
4814;BME280;15375;48.540;9.268;2024-03-08T05:36:47;96957.84;;;0.56;100.00
4814;BME280;15375;48.540;9.268;2024-03-08T05:39:15;96947.47;;;0.54;100.00
4814;BME280;15375;48.540;9.268;2024-03-08T05:41:42;96952.00;;;0.50;100.00
4814;BME280;15375;48.540;9.268;2024-03-08T05:44:08;96949.75;;;0.52;100.00
4814;BME280;15375;48.540;9.268;2024-03-08T05:46:34;96954.38;;;0.55;100.00
4814;BME280;15375;48.540;9.268;2024-03-08T05:49:01;96953.47;;;0.44;100.00
4814;BME280;15375;48.540;9.268;2024-03-08T05:51:34;96946.94;;;0.45;100.00
4814;BME280;15375;48.540;9.268;2024-03-08T05:54:04;96947.25;;;0.40;100.00
4814;BME280;15375;48.540;9.268;2024-03-08T05:56:31;96943.59;;;0.26;100.00
4814;BME280;15375;48.540;9.268;2024-03-08T05:58:57;96932.50;;;0.27;100.00
4814;BME280;15375;48.540;9.268;2024-03-08T06:01:26;96955.00;;;0.45;100.00
4814;BME280;15375;48.540;9.268;2024-03-08T06:03:52;96944.34;;;0.49;100.00
4814;BME280;15375;48.540;9.268;2024-03-08T06:06:20;96942.91;;;0.55;100.00
4814;BME280;15375;48.540;9.268;2024-03-08T06:08:47;96945.03;;;0.46;100.00
4814;BME280;15375;48.540;9.268;2024-03-08T06:11:14;96950.00;;;0.44;100.00
4814;BME280;15375;48.540;9.268;2024-03-08T06:13:40;96949.38;;;0.54;100.00
4814;BME280;15375;48.540;9.268;2024-03-08T06:16:05;96955.72;;;0.69;100.00
4814;BME280;15375;48.540;9.268;2024-03-08T06:18:34;96939.84;;;0.56;100.00
4814;BME280;15375;48.540;9.268;2024-03-08T06:21:04;96958.41;;;0.69;100.00
4814;BME280;15375;48.540;9.268;2024-03-08T06:23:34;96954.28;;;0.75;100.00
4814;BME280;15375;48.540;9.268;2024-03-08T06:26:00;96945.47;;;0.74;100.00
4814;BME280;15375;48.540;9.268;2024-03-08T06:28:26;96938.59;;;0.77;100.00
4814;BME280;15375;48.540;9.268;2024-03-08T06:30:51;96924.91;;;0.85;100.00
4814;BME280;15375;48.540;9.268;2024-03-08T06:33:19;96954.00;;;1.09;100.00
4814;BME280;15375;48.540;9.268;2024-03-08T06:35:45;96950.72;;;1.23;100.00
4814;BME280;15375;48.540;9.268;2024-03-08T06:38:10;96949.22;;;1.29;100.00
4814;BME280;15375;48.540;9.268;2024-03-08T06:40:36;96949.69;;;1.35;100.00
4814;BME280;15375;48.540;9.268;2024-03-08T06:43:02;96947.84;;;1.42;100.00
4814;BME280;15375;48.540;9.268;2024-03-08T06:45:31;96944.97;;;1.58;100.00
4814;BME280;15375;48.540;9.268;2024-03-08T06:47:59;96934.28;;;1.65;100.00
4814;BME280;15375;48.540;9.268;2024-03-08T06:50:25;96957.53;;;1.83;100.00
4814;BME280;15375;48.540;9.268;2024-03-08T06:52:50;96944.88;;;1.87;100.00
4814;BME280;15375;48.540;9.268;2024-03-08T06:55:19;96948.78;;;1.93;100.00
4814;BME280;15375;48.540;9.268;2024-03-08T06:57:45;96944.25;;;2.01;100.00
4814;BME280;15375;48.540;9.268;2024-03-08T07:00:11;96942.06;;;2.14;100.00
4814;BME280;15375;48.540;9.268;2024-03-08T07:02:40;96927.53;;;2.25;100.00
4814;BME280;15375;48.540;9.268;2024-03-08T07:05:07;96937.22;;;2.37;100.00
4814;BME280;15375;48.540;9.268;2024-03-08T07:07:35;96932.19;;;2.32;100.00
4814;BME280;15375;48.540;9.268;2024-03-08T07:10:01;96935.75;;;2.43;100.00
4814;BME280;15375;48.540;9.268;2024-03-08T07:12:26;96936.59;;;2.54;100.00
4814;BME280;15375;48.540;9.268;2024-03-08T07:14:51;96923.53;;;2.59;100.00
4814;BME280;15375;48.540;9.268;2024-03-08T07:17:17;96925.06;;;2.57;100.00
4814;BME280;15375;48.540;9.268;2024-03-08T07:19:42;96926.31;;;2.67;100.00
4814;BME280;15375;48.540;9.268;2024-03-08T07:22:07;96920.56;;;2.72;100.00
4814;BME280;15375;48.540;9.268;2024-03-08T07:24:35;96925.25;;;2.85;100.00
4814;BME280;15375;48.540;9.268;2024-03-08T07:27:05;96920.66;;;2.89;100.00
4814;BME280;15375;48.540;9.268;2024-03-08T07:29:32;96917.59;;;2.94;100.00
4814;BME280;15375;48.540;9.268;2024-03-08T07:31:58;96907.25;;;3.03;100.00
4814;BME280;15375;48.540;9.268;2024-03-08T07:34:38;96912.31;;;3.15;100.00
4814;BME280;15375;48.540;9.268;2024-03-08T07:37:05;96911.19;;;3.23;100.00
4814;BME280;15375;48.540;9.268;2024-03-08T07:39:30;96908.91;;;3.33;100.00
4814;BME280;15375;48.540;9.268;2024-03-08T07:41:57;96907.38;;;3.32;100.00
4814;BME280;15375;48.540;9.268;2024-03-08T07:44:22;96904.66;;;3.28;100.00
4814;BME280;15375;48.540;9.268;2024-03-08T07:46:48;96908.53;;;3.27;100.00
4814;BME280;15375;48.540;9.268;2024-03-08T07:49:14;96911.22;;;3.34;100.00
4814;BME280;15375;48.540;9.268;2024-03-08T07:51:40;96900.09;;;3.39;100.00
4814;BME280;15375;48.540;9.268;2024-03-08T07:54:06;96896.22;;;3.37;100.00
4814;BME280;15375;48.540;9.268;2024-03-08T07:56:32;96902.41;;;3.51;100.00
4814;BME280;15375;48.540;9.268;2024-03-08T07:58:58;96891.66;;;3.58;100.00
4814;BME280;15375;48.540;9.268;2024-03-08T08:01:23;96891.66;;;3.55;100.00
4814;BME280;15375;48.540;9.268;2024-03-08T08:03:49;96893.19;;;3.63;100.00
4814;BME280;15375;48.540;9.268;2024-03-08T08:06:15;96894.72;;;3.60;100.00
4814;BME280;15375;48.540;9.268;2024-03-08T08:08:42;96892.81;;;3.57;100.00
4814;BME280;15375;48.540;9.268;2024-03-08T08:11:08;96897.84;;;3.76;100.00
4814;BME280;15375;48.540;9.268;2024-03-08T08:13:34;96895.91;;;3.80;100.00
4814;BME280;15375;48.540;9.268;2024-03-08T08:16:01;96888.16;;;3.44;100.00
4814;BME280;15375;48.540;9.268;2024-03-08T08:18:27;96880.06;;;3.51;100.00
4814;BME280;15375;48.540;9.268;2024-03-08T08:20:52;96880.09;;;3.68;100.00
4814;BME280;15375;48.540;9.268;2024-03-08T08:23:18;96868.94;;;3.80;100.00
4814;BME280;15375;48.540;9.268;2024-03-08T08:25:45;96876.28;;;3.94;100.00
4814;BME280;15375;48.540;9.268;2024-03-08T08:28:10;96880.16;;;4.00;100.00
4814;BME280;15375;48.540;9.268;2024-03-08T08:30:38;96873.59;;;3.80;100.00
4814;BME280;15375;48.540;9.268;2024-03-08T08:33:03;96882.84;;;3.97;100.00
4814;BME280;15375;48.540;9.268;2024-03-08T08:35:30;96872.44;;;3.84;100.00
4814;BME280;15375;48.540;9.268;2024-03-08T08:37:56;96880.16;;;4.07;100.00
4814;BME280;15375;48.540;9.268;2024-03-08T08:40:24;96871.25;;;4.21;100.00
4814;BME280;15375;48.540;9.268;2024-03-08T08:42:50;96875.53;;;4.25;100.00
4814;BME280;15375;48.540;9.268;2024-03-08T08:45:16;96860.09;;;4.08;100.00
4814;BME280;15375;48.540;9.268;2024-03-08T08:47:45;96867.03;;;4.16;100.00
4814;BME280;15375;48.540;9.268;2024-03-08T08:50:12;96861.63;;;4.16;100.00
4814;BME280;15375;48.540;9.268;2024-03-08T08:52:38;96867.06;;;4.02;100.00
4814;BME280;15375;48.540;9.268;2024-03-08T08:55:04;96872.06;;;3.97;100.00
4814;BME280;15375;48.540;9.268;2024-03-08T08:57:31;96858.16;;;4.16;100.00
4814;BME280;15375;48.540;9.268;2024-03-08T08:59:58;96868.56;;;4.31;100.00
4814;BME280;15375;48.540;9.268;2024-03-08T09:02:23;96854.69;;;4.36;100.00
4814;BME280;15375;48.540;9.268;2024-03-08T09:04:50;96860.09;;;4.29;100.00
4814;BME280;15375;48.540;9.268;2024-03-08T09:07:16;96850.44;;;4.39;100.00
4814;BME280;15375;48.540;9.268;2024-03-08T09:09:44;96848.50;;;4.36;100.00
4814;BME280;15375;48.540;9.268;2024-03-08T09:12:10;96861.22;;;4.39;100.00
4814;BME280;15375;48.540;9.268;2024-03-08T09:14:41;96846.56;;;4.43;100.00
4814;BME280;15375;48.540;9.268;2024-03-08T09:17:08;96854.66;;;4.58;100.00
4814;BME280;15375;48.540;9.268;2024-03-08T09:19:35;96848.81;;;4.66;100.00
4814;BME280;15375;48.540;9.268;2024-03-08T09:22:00;96849.28;;;4.50;99.96
4814;BME280;15375;48.540;9.268;2024-03-08T09:24:25;96844.50;;;4.86;100.00
4814;BME280;15375;48.540;9.268;2024-03-08T09:26:51;96834.44;;;5.01;98.08
4814;BME280;15375;48.540;9.268;2024-03-08T09:29:17;96839.81;;;5.08;98.23
4814;BME280;15375;48.540;9.268;2024-03-08T09:31:42;96831.75;;;5.01;96.31
4814;BME280;15375;48.540;9.268;2024-03-08T09:34:08;96823.63;;;5.01;96.35
4814;BME280;15375;48.540;9.268;2024-03-08T09:36:34;96826.00;;;4.85;96.39
4814;BME280;15375;48.540;9.268;2024-03-08T09:38:59;96826.38;;;4.90;98.39
4814;BME280;15375;48.540;9.268;2024-03-08T09:41:25;96827.09;;;5.05;98.09
4814;BME280;15375;48.540;9.268;2024-03-08T09:43:51;96823.56;;;5.11;99.51
4814;BME280;15375;48.540;9.268;2024-03-08T09:46:18;96823.56;;;5.15;97.17
4814;BME280;15375;48.540;9.268;2024-03-08T09:48:45;96823.00;;;5.41;94.85
4814;BME280;15375;48.540;9.268;2024-03-08T09:51:12;96818.06;;;5.33;92.81
4814;BME280;15375;48.540;9.268;2024-03-08T09:53:40;96806.59;;;5.11;95.67
4814;BME280;15375;48.540;9.268;2024-03-08T09:56:08;96821.94;;;5.28;96.94
4814;BME280;15375;48.540;9.268;2024-03-08T09:58:33;96808.44;;;5.21;94.07
4814;BME280;15375;48.540;9.268;2024-03-08T10:00:59;96808.75;;;5.37;94.07
4814;BME280;15375;48.540;9.268;2024-03-08T10:03:30;96798.97;;;5.57;93.56
4814;BME280;15375;48.540;9.268;2024-03-08T10:05:58;96810.25;;;5.45;93.39
4814;BME280;15375;48.540;9.268;2024-03-08T10:08:28;96803.22;;;5.55;93.55
4814;BME280;15375;48.540;9.268;2024-03-08T10:10:56;96803.34;;;5.37;91.30
4814;BME280;15375;48.540;9.268;2024-03-08T10:13:26;96795.53;;;5.53;94.10
4814;BME280;15375;48.540;9.268;2024-03-08T10:15:55;96801.78;;;5.43;93.00
4814;BME280;15375;48.540;9.268;2024-03-08T10:18:20;96791.56;;;5.68;93.54
4814;BME280;15375;48.540;9.268;2024-03-08T10:20:46;96797.69;;;5.76;91.87
4814;BME280;15375;48.540;9.268;2024-03-08T10:23:12;96784.16;;;5.72;91.69
4814;BME280;15375;48.540;9.268;2024-03-08T10:25:37;96787.59;;;5.80;90.91
4814;BME280;15375;48.540;9.268;2024-03-08T10:28:03;96781.63;;;6.03;90.26
4814;BME280;15375;48.540;9.268;2024-03-08T10:30:32;96758.44;;;6.73;85.72
4814;BME280;15375;48.540;9.268;2024-03-08T10:32:57;96759.19;;;6.77;83.44
4814;BME280;15375;48.540;9.268;2024-03-08T10:35:24;96749.78;;;6.51;85.52
4814;BME280;15375;48.540;9.268;2024-03-08T10:37:50;96753.56;;;6.61;83.93
4814;BME280;15375;48.540;9.268;2024-03-08T10:40:25;96746.22;;;6.58;83.98
4814;BME280;15375;48.540;9.268;2024-03-08T10:45:28;96760.75;;;7.04;82.46
4814;BME280;15375;48.540;9.268;2024-03-08T10:48:10;96754.78;;;6.86;82.93
4814;BME280;15375;48.540;9.268;2024-03-08T10:50:41;96744.63;;;6.94;82.98
4814;BME280;15375;48.540;9.268;2024-03-08T10:53:11;96746.31;;;7.38;80.38
4814;BME280;15375;48.540;9.268;2024-03-08T10:55:40;96750.47;;;7.46;78.61
4814;BME280;15375;48.540;9.268;2024-03-08T10:58:06;96744.66;;;7.94;78.37
4814;BME280;15375;48.540;9.268;2024-03-08T11:00:34;96731.34;;;8.46;74.92
4814;BME280;15375;48.540;9.268;2024-03-08T11:03:00;96733.78;;;8.60;71.13
4814;BME280;15375;48.540;9.268;2024-03-08T11:05:51;96739.22;;;8.40;74.11
4814;BME280;15375;48.540;9.268;2024-03-08T11:08:17;96732.00;;;8.89;70.93
4814;BME280;15375;48.540;9.268;2024-03-08T11:10:55;96733.81;;;8.13;70.48
4814;BME280;15375;48.540;9.268;2024-03-08T11:13:40;96734.69;;;7.87;72.72
4814;BME280;15375;48.540;9.268;2024-03-08T11:18:49;96721.28;;;8.00;73.42
4814;BME280;15375;48.540;9.268;2024-03-08T11:21:17;96714.13;;;8.09;73.15
4814;BME280;15375;48.540;9.268;2024-03-08T11:23:42;96711.88;;;8.67;71.40
4814;BME280;15375;48.540;9.268;2024-03-08T11:26:18;96716.94;;;8.25;71.47
4814;BME280;15375;48.540;9.268;2024-03-08T11:28:44;96692.50;;;8.65;70.55
4814;BME280;15375;48.540;9.268;2024-03-08T11:33:36;96710.00;;;8.83;69.03
4814;BME280;15375;48.540;9.268;2024-03-08T11:36:11;96709.06;;;8.90;67.78
4814;BME280;15375;48.540;9.268;2024-03-08T11:38:43;96702.53;;;8.28;68.80
4814;BME280;15375;48.540;9.268;2024-03-08T11:41:17;96705.06;;;8.78;70.21
4814;BME280;15375;48.540;9.268;2024-03-08T11:43:45;96701.09;;;8.63;70.33
4814;BME280;15375;48.540;9.268;2024-03-08T11:46:11;96690.69;;;9.14;66.84
4814;BME280;15375;48.540;9.268;2024-03-08T11:48:43;96692.16;;;9.50;66.28
4814;BME280;15375;48.540;9.268;2024-03-08T11:51:13;96677.47;;;8.96;65.30
4814;BME280;15375;48.540;9.268;2024-03-08T11:53:39;96686.03;;;8.78;67.98
4814;BME280;15375;48.540;9.268;2024-03-08T11:56:10;96684.75;;;8.83;70.50
4814;BME280;15375;48.540;9.268;2024-03-08T11:58:36;96671.63;;;9.30;66.07
4814;BME280;15375;48.540;9.268;2024-03-08T12:01:06;96664.88;;;9.02;66.04
4814;BME280;15375;48.540;9.268;2024-03-08T12:03:35;96669.06;;;9.07;65.97
4814;BME280;15375;48.540;9.268;2024-03-08T12:06:01;96659.34;;;8.89;65.73
4814;BME280;15375;48.540;9.268;2024-03-08T12:08:27;96657.47;;;8.86;67.21
4814;BME280;15375;48.540;9.268;2024-03-08T12:10:56;96642.28;;;9.37;65.69
4814;BME280;15375;48.540;9.268;2024-03-08T12:13:32;96652.00;;;9.06;66.16
4814;BME280;15375;48.540;9.268;2024-03-08T12:15:59;96643.91;;;9.51;67.98
4814;BME280;15375;48.540;9.268;2024-03-08T12:18:25;96645.13;;;9.34;63.53
4814;BME280;15375;48.540;9.268;2024-03-08T12:21:06;96633.97;;;9.12;64.63
4814;BME280;15375;48.540;9.268;2024-03-08T12:24:05;96640.09;;;9.16;67.24
4814;BME280;15375;48.540;9.268;2024-03-08T12:26:35;96626.66;;;9.09;65.15
4814;BME280;15375;48.540;9.268;2024-03-08T12:29:19;96639.16;;;9.23;65.96
4814;BME280;15375;48.540;9.268;2024-03-08T12:31:51;96627.50;;;9.38;64.06
4814;BME280;15375;48.540;9.268;2024-03-08T12:34:17;96618.84;;;9.27;66.95
4814;BME280;15375;48.540;9.268;2024-03-08T12:36:47;96621.25;;;9.70;64.53
4814;BME280;15375;48.540;9.268;2024-03-08T12:39:16;96616.78;;;9.92;62.99
4814;BME280;15375;48.540;9.268;2024-03-08T12:41:42;96606.88;;;9.70;61.99
4814;BME280;15375;48.540;9.268;2024-03-08T12:44:08;96609.47;;;9.44;63.93
4814;BME280;15375;48.540;9.268;2024-03-08T12:46:37;96602.63;;;9.69;62.63
4814;BME280;15375;48.540;9.268;2024-03-08T12:49:07;96594.47;;;9.69;62.26
4814;BME280;15375;48.540;9.268;2024-03-08T12:51:33;96592.47;;;9.85;62.52
4814;BME280;15375;48.540;9.268;2024-03-08T12:53:58;96583.22;;;9.95;61.23
4814;BME280;15375;48.540;9.268;2024-03-08T12:56:31;96583.00;;;10.18;60.73
4814;BME280;15375;48.540;9.268;2024-03-08T12:58:58;96571.09;;;9.55;63.18
4814;BME280;15375;48.540;9.268;2024-03-08T13:01:24;96577.00;;;9.95;64.25
4814;BME280;15375;48.540;9.268;2024-03-08T13:03:49;96568.47;;;10.09;62.65
4814;BME280;15375;48.540;9.268;2024-03-08T13:06:15;96567.63;;;10.12;62.86
4814;BME280;15375;48.540;9.268;2024-03-08T13:08:41;96574.94;;;10.27;61.44
4814;BME280;15375;48.540;9.268;2024-03-08T13:11:08;96561.75;;;10.13;60.88
4814;BME280;15375;48.540;9.268;2024-03-08T13:13:36;96560.38;;;10.05;60.58
4814;BME280;15375;48.540;9.268;2024-03-08T13:16:05;96549.69;;;9.70;61.89
4814;BME280;15375;48.540;9.268;2024-03-08T13:18:36;96528.00;;;10.07;61.06
4814;BME280;15375;48.540;9.268;2024-03-08T13:21:03;96539.63;;;10.24;61.57